sensor_id;sensor_type;location;lat;lon;timestamp;pressure;altitude;pressure_sealevel;temperature;humidity
64211;BME280;50528;48.514;14.394;2023-05-20T00:00:15;94141.39;;;10.32;81.14
64211;BME280;50528;48.514;14.394;2023-05-20T00:01:09;94130.63;;;10.26;81.14
64211;BME280;50528;48.514;14.394;2023-05-20T00:01:42;94136.15;;;10.29;81.35
64211;BME280;50528;48.514;14.394;2023-05-20T00:02:15;94135.79;;;10.29;81.27
64211;BME280;50528;48.514;14.394;2023-05-20T00:02:49;94133.84;;;10.29;81.36
64211;BME280;50528;48.514;14.394;2023-05-20T00:03:22;94133.42;;;10.30;81.38
64211;BME280;50528;48.514;14.394;2023-05-20T00:03:56;94131.42;;;10.29;81.39
64211;BME280;50528;48.514;14.394;2023-05-20T00:04:30;94134.94;;;10.29;81.43
64211;BME280;50528;48.514;14.394;2023-05-20T00:05:04;94136.84;;;10.29;81.46
64211;BME280;50528;48.514;14.394;2023-05-20T00:05:37;94128.53;;;10.26;81.53
64211;BME280;50528;48.514;14.394;2023-05-20T00:06:10;94128.12;;;10.30;81.56
64211;BME280;50528;48.514;14.394;2023-05-20T00:06:44;94125.95;;;10.32;81.72
64211;BME280;50528;48.514;14.394;2023-05-20T00:07:17;94131.55;;;10.32;81.52
64211;BME280;50528;48.514;14.394;2023-05-20T00:07:51;94128.52;;;10.29;81.33
64211;BME280;50528;48.514;14.394;2023-05-20T00:08:24;94129.33;;;10.26;81.47
64211;BME280;50528;48.514;14.394;2023-05-20T00:08:57;94128.45;;;10.25;81.60
64211;BME280;50528;48.514;14.394;2023-05-20T00:09:32;94127.04;;;10.24;81.49
64211;BME280;50528;48.514;14.394;2023-05-20T00:10:05;94126.39;;;10.24;81.56
64211;BME280;50528;48.514;14.394;2023-05-20T00:10:39;94128.72;;;10.25;81.54
64211;BME280;50528;48.514;14.394;2023-05-20T00:11:13;94124.04;;;10.22;81.61
64211;BME280;50528;48.514;14.394;2023-05-20T00:11:46;94125.58;;;10.22;81.50
64211;BME280;50528;48.514;14.394;2023-05-20T00:12:19;94125.98;;;10.22;81.54
64211;BME280;50528;48.514;14.394;2023-05-20T00:12:53;94123.39;;;10.20;81.56
64211;BME280;50528;48.514;14.394;2023-05-20T00:13:26;94123.08;;;10.20;81.53
64211;BME280;50528;48.514;14.394;2023-05-20T00:14:00;94124.96;;;10.20;81.61
64211;BME280;50528;48.514;14.394;2023-05-20T00:14:33;94125.08;;;10.21;81.55
64211;BME280;50528;48.514;14.394;2023-05-20T00:15:07;94120.17;;;10.20;81.47
64211;BME280;50528;48.514;14.394;2023-05-20T00:15:40;94118.50;;;10.20;81.53
64211;BME280;50528;48.514;14.394;2023-05-20T00:16:14;94116.52;;;10.21;81.44
64211;BME280;50528;48.514;14.394;2023-05-20T00:16:50;94114.45;;;10.20;81.40
64211;BME280;50528;48.514;14.394;2023-05-20T00:17:27;94122.35;;;10.20;81.38
64211;BME280;50528;48.514;14.394;2023-05-20T00:18:04;94121.27;;;10.19;81.28
64211;BME280;50528;48.514;14.394;2023-05-20T00:18:37;94118.98;;;10.17;81.29
64211;BME280;50528;48.514;14.394;2023-05-20T00:19:11;94117.77;;;10.16;81.15
64211;BME280;50528;48.514;14.394;2023-05-20T00:19:44;94114.17;;;10.14;81.11
64211;BME280;50528;48.514;14.394;2023-05-20T00:20:18;94114.08;;;10.15;81.08
64211;BME280;50528;48.514;14.394;2023-05-20T00:20:51;94116.42;;;10.15;81.04
64211;BME280;50528;48.514;14.394;2023-05-20T00:21:26;94119.27;;;10.14;80.90
64211;BME280;50528;48.514;14.394;2023-05-20T00:21:59;94117.84;;;10.14;80.57
64211;BME280;50528;48.514;14.394;2023-05-20T00:22:33;94119.30;;;10.13;80.54
64211;BME280;50528;48.514;14.394;2023-05-20T00:23:06;94119.41;;;10.08;80.43
64211;BME280;50528;48.514;14.394;2023-05-20T00:23:39;94119.53;;;10.05;80.46
64211;BME280;50528;48.514;14.394;2023-05-20T00:24:13;94119.63;;;10.02;80.51
64211;BME280;50528;48.514;14.394;2023-05-20T00:24:46;94120.56;;;10.01;80.52
64211;BME280;50528;48.514;14.394;2023-05-20T00:25:19;94120.77;;;10.00;80.56
64211;BME280;50528;48.514;14.394;2023-05-20T00:25:53;94123.27;;;10.00;80.53
64211;BME280;50528;48.514;14.394;2023-05-20T00:26:28;94120.75;;;9.99;80.60
64211;BME280;50528;48.514;14.394;2023-05-20T00:27:01;94121.79;;;9.99;80.56
64211;BME280;50528;48.514;14.394;2023-05-20T00:27:35;94127.61;;;9.99;80.59
64211;BME280;50528;48.514;14.394;2023-05-20T00:28:08;94125.20;;;9.99;80.56
64211;BME280;50528;48.514;14.394;2023-05-20T00:28:41;94125.85;;;9.98;80.51
64211;BME280;50528;48.514;14.394;2023-05-20T00:29:15;94125.10;;;9.97;80.49
64211;BME280;50528;48.514;14.394;2023-05-20T00:29:48;94130.79;;;9.98;80.46
64211;BME280;50528;48.514;14.394;2023-05-20T00:30:21;94126.61;;;9.97;80.47
64211;BME280;50528;48.514;14.394;2023-05-20T00:30:55;94125.98;;;9.96;80.46
64211;BME280;50528;48.514;14.394;2023-05-20T00:31:28;94126.14;;;9.96;80.53
64211;BME280;50528;48.514;14.394;2023-05-20T00:32:02;94122.63;;;9.97;80.57
64211;BME280;50528;48.514;14.394;2023-05-20T00:32:35;94124.08;;;9.95;80.47
64211;BME280;50528;48.514;14.394;2023-05-20T00:33:09;94123.17;;;9.94;80.58
64211;BME280;50528;48.514;14.394;2023-05-20T00:33:43;94122.48;;;9.94;80.75
64211;BME280;50528;48.514;14.394;2023-05-20T00:34:16;94123.86;;;9.94;80.63
64211;BME280;50528;48.514;14.394;2023-05-20T00:34:56;94122.41;;;9.93;80.76
64211;BME280;50528;48.514;14.394;2023-05-20T00:35:30;94126.45;;;9.91;80.74
64211;BME280;50528;48.514;14.394;2023-05-20T00:36:05;94126.31;;;9.92;80.84
64211;BME280;50528;48.514;14.394;2023-05-20T00:36:38;94124.46;;;9.91;80.89
64211;BME280;50528;48.514;14.394;2023-05-20T00:37:11;94123.58;;;9.88;81.09
64211;BME280;50528;48.514;14.394;2023-05-20T00:37:45;94123.33;;;9.94;81.33
64211;BME280;50528;48.514;14.394;2023-05-20T00:38:18;94125.75;;;9.94;81.69
64211;BME280;50528;48.514;14.394;2023-05-20T00:38:52;94123.44;;;9.98;81.95
64211;BME280;50528;48.514;14.394;2023-05-20T00:39:25;94126.45;;;9.96;82.09
64211;BME280;50528;48.514;14.394;2023-05-20T00:39:58;94127.30;;;9.97;82.16
64211;BME280;50528;48.514;14.394;2023-05-20T00:40:32;94124.09;;;9.97;82.31
64211;BME280;50528;48.514;14.394;2023-05-20T00:41:05;94122.20;;;9.99;82.40
64211;BME280;50528;48.514;14.394;2023-05-20T00:41:39;94118.87;;;10.00;82.45
64211;BME280;50528;48.514;14.394;2023-05-20T00:42:27;94124.13;;;10.00;82.51
64211;BME280;50528;48.514;14.394;2023-05-20T00:43:01;94118.59;;;10.00;82.29
64211;BME280;50528;48.514;14.394;2023-05-20T00:43:35;94124.28;;;10.00;82.48
64211;BME280;50528;48.514;14.394;2023-05-20T00:44:09;94125.77;;;10.01;82.38
64211;BME280;50528;48.514;14.394;2023-05-20T00:44:42;94126.13;;;10.01;82.26
64211;BME280;50528;48.514;14.394;2023-05-20T00:45:16;94127.80;;;10.01;82.16
64211;BME280;50528;48.514;14.394;2023-05-20T00:45:53;94129.17;;;10.01;82.13
64211;BME280;50528;48.514;14.394;2023-05-20T00:46:27;94125.98;;;10.01;82.04
64211;BME280;50528;48.514;14.394;2023-05-20T00:47:01;94126.70;;;10.01;81.95
64211;BME280;50528;48.514;14.394;2023-05-20T00:47:35;94127.84;;;10.00;81.96
64211;BME280;50528;48.514;14.394;2023-05-20T00:48:09;94125.18;;;10.01;81.86
64211;BME280;50528;48.514;14.394;2023-05-20T00:48:43;94126.77;;;10.01;81.66
64211;BME280;50528;48.514;14.394;2023-05-20T00:49:17;94129.14;;;9.99;81.59
64211;BME280;50528;48.514;14.394;2023-05-20T00:49:50;94129.35;;;9.99;81.47
64211;BME280;50528;48.514;14.394;2023-05-20T00:50:24;94128.08;;;9.98;81.37
64211;BME280;50528;48.514;14.394;2023-05-20T00:50:58;94129.89;;;9.98;81.36
64211;BME280;50528;48.514;14.394;2023-05-20T00:51:32;94128.54;;;9.95;81.31
64211;BME280;50528;48.514;14.394;2023-05-20T00:52:06;94128.54;;;9.95;81.24
64211;BME280;50528;48.514;14.394;2023-05-20T00:52:40;94129.23;;;9.93;81.04
64211;BME280;50528;48.514;14.394;2023-05-20T00:53:17;94127.25;;;9.91;81.21
64211;BME280;50528;48.514;14.394;2023-05-20T00:53:50;94129.23;;;9.91;81.09
64211;BME280;50528;48.514;14.394;2023-05-20T00:54:25;94125.87;;;9.90;81.18
64211;BME280;50528;48.514;14.394;2023-05-20T00:54:58;94126.50;;;9.91;81.15
64211;BME280;50528;48.514;14.394;2023-05-20T00:55:32;94125.98;;;9.90;81.01
64211;BME280;50528;48.514;14.394;2023-05-20T00:56:07;94126.92;;;9.90;81.03
64211;BME280;50528;48.514;14.394;2023-05-20T00:56:41;94124.66;;;9.90;80.86
64211;BME280;50528;48.514;14.394;2023-05-20T00:57:15;94125.28;;;9.90;80.90
64211;BME280;50528;48.514;14.394;2023-05-20T00:57:49;94124.12;;;9.89;80.86
64211;BME280;50528;48.514;14.394;2023-05-20T00:58:23;94126.00;;;9.88;80.82
64211;BME280;50528;48.514;14.394;2023-05-20T00:58:57;94123.02;;;9.88;80.82
64211;BME280;50528;48.514;14.394;2023-05-20T00:59:30;94125.56;;;9.87;80.78
64211;BME280;50528;48.514;14.394;2023-05-20T01:00:04;94128.89;;;9.86;80.64
64211;BME280;50528;48.514;14.394;2023-05-20T01:00:40;94126.67;;;9.86;80.77
64211;BME280;50528;48.514;14.394;2023-05-20T01:01:13;94120.52;;;9.85;80.72
64211;BME280;50528;48.514;14.394;2023-05-20T01:01:47;94122.77;;;9.86;80.65
64211;BME280;50528;48.514;14.394;2023-05-20T01:02:20;94122.30;;;9.85;80.68
64211;BME280;50528;48.514;14.394;2023-05-20T01:02:55;94123.85;;;9.82;80.59
64211;BME280;50528;48.514;14.394;2023-05-20T01:03:29;94118.81;;;9.80;80.52
64211;BME280;50528;48.514;14.394;2023-05-20T01:04:03;94122.14;;;9.81;80.54
64211;BME280;50528;48.514;14.394;2023-05-20T01:04:36;94115.86;;;9.77;80.46
64211;BME280;50528;48.514;14.394;2023-05-20T01:05:09;94117.75;;;9.79;80.58
64211;BME280;50528;48.514;14.394;2023-05-20T01:05:43;94119.51;;;9.78;80.45
64211;BME280;50528;48.514;14.394;2023-05-20T01:06:16;94118.25;;;9.78;80.38
64211;BME280;50528;48.514;14.394;2023-05-20T01:06:51;94121.13;;;9.77;80.18
64211;BME280;50528;48.514;14.394;2023-05-20T01:07:24;94123.33;;;9.75;80.19
64211;BME280;50528;48.514;14.394;2023-05-20T01:07:58;94120.73;;;9.73;80.21
64211;BME280;50528;48.514;14.394;2023-05-20T01:08:31;94121.41;;;9.73;80.20
64211;BME280;50528;48.514;14.394;2023-05-20T01:09:06;94120.02;;;9.71;80.10
64211;BME280;50528;48.514;14.394;2023-05-20T01:09:40;94120.16;;;9.70;80.11
64211;BME280;50528;48.514;14.394;2023-05-20T01:10:13;94121.46;;;9.70;80.18
64211;BME280;50528;48.514;14.394;2023-05-20T01:10:52;94119.38;;;9.68;80.07
64211;BME280;50528;48.514;14.394;2023-05-20T01:11:33;94117.30;;;9.67;80.06
64211;BME280;50528;48.514;14.394;2023-05-20T01:12:15;94119.31;;;9.65;80.22
64211;BME280;50528;48.514;14.394;2023-05-20T01:12:52;94119.30;;;9.62;80.25
64211;BME280;50528;48.514;14.394;2023-05-20T01:13:29;94117.19;;;9.61;80.36
64211;BME280;50528;48.514;14.394;2023-05-20T01:14:07;94118.80;;;9.60;80.36
64211;BME280;50528;48.514;14.394;2023-05-20T01:14:48;94113.92;;;9.57;80.48
64211;BME280;50528;48.514;14.394;2023-05-20T01:15:23;94118.63;;;9.59;80.43
64211;BME280;50528;48.514;14.394;2023-05-20T01:15:58;94115.06;;;9.57;80.51
64211;BME280;50528;48.514;14.394;2023-05-20T01:16:34;94115.17;;;9.57;80.48
64211;BME280;50528;48.514;14.394;2023-05-20T01:17:08;94111.48;;;9.56;80.39
64211;BME280;50528;48.514;14.394;2023-05-20T01:17:50;94113.67;;;9.56;80.44
64211;BME280;50528;48.514;14.394;2023-05-20T01:18:25;94114.13;;;9.55;80.43
64211;BME280;50528;48.514;14.394;2023-05-20T01:19:07;94113.71;;;9.56;80.47
64211;BME280;50528;48.514;14.394;2023-05-20T01:19:46;94105.91;;;9.50;80.49
64211;BME280;50528;48.514;14.394;2023-05-20T01:20:21;94111.65;;;9.49;80.62
64211;BME280;50528;48.514;14.394;2023-05-20T01:20:55;94113.21;;;9.48;80.69
64211;BME280;50528;48.514;14.394;2023-05-20T01:21:34;94108.73;;;9.47;80.73
64211;BME280;50528;48.514;14.394;2023-05-20T01:22:08;94111.59;;;9.45;80.78
64211;BME280;50528;48.514;14.394;2023-05-20T01:22:52;94107.84;;;9.44;80.86
64211;BME280;50528;48.514;14.394;2023-05-20T01:23:32;94107.77;;;9.44;80.89
64211;BME280;50528;48.514;14.394;2023-05-20T01:24:05;94107.27;;;9.42;81.01
64211;BME280;50528;48.514;14.394;2023-05-20T01:24:46;94111.26;;;9.41;80.97
64211;BME280;50528;48.514;14.394;2023-05-20T01:25:25;94105.48;;;9.40;81.11
64211;BME280;50528;48.514;14.394;2023-05-20T01:25:59;94103.05;;;9.40;81.14
64211;BME280;50528;48.514;14.394;2023-05-20T01:26:32;94110.80;;;9.43;81.23
64211;BME280;50528;48.514;14.394;2023-05-20T01:27:11;94105.64;;;9.42;81.38
64211;BME280;50528;48.514;14.394;2023-05-20T01:27:56;94102.52;;;9.38;81.30
64211;BME280;50528;48.514;14.394;2023-05-20T01:28:36;94103.54;;;9.33;81.43
64211;BME280;50528;48.514;14.394;2023-05-20T01:29:11;94106.71;;;9.35;81.59
64211;BME280;50528;48.514;14.394;2023-05-20T01:29:46;94100.28;;;9.33;81.51
64211;BME280;50528;48.514;14.394;2023-05-20T01:30:29;94103.25;;;9.32;81.73
64211;BME280;50528;48.514;14.394;2023-05-20T01:31:04;94104.80;;;9.31;81.62
64211;BME280;50528;48.514;14.394;2023-05-20T01:31:39;94102.34;;;9.31;81.73
64211;BME280;50528;48.514;14.394;2023-05-20T01:32:20;94102.52;;;9.32;81.71
64211;BME280;50528;48.514;14.394;2023-05-20T01:33:00;94101.38;;;9.33;81.72
64211;BME280;50528;48.514;14.394;2023-05-20T01:33:35;94102.29;;;9.31;81.78
64211;BME280;50528;48.514;14.394;2023-05-20T01:34:09;94101.55;;;9.28;81.76
64211;BME280;50528;48.514;14.394;2023-05-20T01:34:44;94102.97;;;9.28;81.75
64211;BME280;50528;48.514;14.394;2023-05-20T01:35:21;94101.70;;;9.30;81.73
64211;BME280;50528;48.514;14.394;2023-05-20T01:35:56;94096.23;;;9.30;81.77
64211;BME280;50528;48.514;14.394;2023-05-20T01:36:30;94099.07;;;9.33;81.80
64211;BME280;50528;48.514;14.394;2023-05-20T01:37:05;94096.45;;;9.33;81.72
64211;BME280;50528;48.514;14.394;2023-05-20T01:37:40;94098.26;;;9.34;81.73
64211;BME280;50528;48.514;14.394;2023-05-20T01:38:15;94096.63;;;9.34;81.79
64211;BME280;50528;48.514;14.394;2023-05-20T01:38:52;94090.00;;;9.35;81.80
64211;BME280;50528;48.514;14.394;2023-05-20T01:39:27;94090.13;;;9.37;81.90
64211;BME280;50528;48.514;14.394;2023-05-20T01:40:02;94087.73;;;9.38;81.97
64211;BME280;50528;48.514;14.394;2023-05-20T01:40:37;94090.59;;;9.37;81.90
64211;BME280;50528;48.514;14.394;2023-05-20T01:41:11;94088.13;;;9.37;82.02
64211;BME280;50528;48.514;14.394;2023-05-20T01:41:46;94088.61;;;9.37;82.01
64211;BME280;50528;48.514;14.394;2023-05-20T01:42:20;94084.73;;;9.38;81.97
64211;BME280;50528;48.514;14.394;2023-05-20T01:42:55;94088.16;;;9.38;81.89
64211;BME280;50528;48.514;14.394;2023-05-20T01:43:30;94090.21;;;9.38;81.85
64211;BME280;50528;48.514;14.394;2023-05-20T01:44:03;94090.64;;;9.39;81.91
64211;BME280;50528;48.514;14.394;2023-05-20T01:44:37;94088.17;;;9.39;81.88
64211;BME280;50528;48.514;14.394;2023-05-20T01:45:12;94089.69;;;9.38;81.85
64211;BME280;50528;48.514;14.394;2023-05-20T01:45:45;94091.38;;;9.39;81.86
64211;BME280;50528;48.514;14.394;2023-05-20T01:46:18;94090.59;;;9.39;81.83
64211;BME280;50528;48.514;14.394;2023-05-20T01:46:53;94090.30;;;9.40;81.95
64211;BME280;50528;48.514;14.394;2023-05-20T01:47:27;94088.95;;;9.41;81.92
64211;BME280;50528;48.514;14.394;2023-05-20T01:48:01;94086.98;;;9.41;81.89
64211;BME280;50528;48.514;14.394;2023-05-20T01:48:35;94083.35;;;9.42;81.97
64211;BME280;50528;48.514;14.394;2023-05-20T01:50:46;94085.42;;;9.41;82.01
64211;BME280;50528;48.514;14.394;2023-05-20T01:51:19;94086.98;;;9.37;82.01
64211;BME280;50528;48.514;14.394;2023-05-20T01:51:53;94084.83;;;9.37;82.04
64211;BME280;50528;48.514;14.394;2023-05-20T01:52:27;94084.80;;;9.36;82.11
64211;BME280;50528;48.514;14.394;2023-05-20T01:53:02;94087.47;;;9.38;82.09
64211;BME280;50528;48.514;14.394;2023-05-20T01:53:36;94084.64;;;9.38;82.21
64211;BME280;50528;48.514;14.394;2023-05-20T01:54:09;94090.43;;;9.39;82.16
64211;BME280;50528;48.514;14.394;2023-05-20T01:54:42;94085.63;;;9.40;82.20
64211;BME280;50528;48.514;14.394;2023-05-20T01:55:22;94082.20;;;9.39;82.32
64211;BME280;50528;48.514;14.394;2023-05-20T01:55:58;94082.77;;;9.39;82.18
64211;BME280;50528;48.514;14.394;2023-05-20T01:56:32;94081.49;;;9.38;82.29
64211;BME280;50528;48.514;14.394;2023-05-20T01:57:05;94085.30;;;9.40;82.11
64211;BME280;50528;48.514;14.394;2023-05-20T01:57:38;94084.66;;;9.39;82.15
64211;BME280;50528;48.514;14.394;2023-05-20T01:58:12;94086.08;;;9.39;82.14
64211;BME280;50528;48.514;14.394;2023-05-20T01:58:45;94088.70;;;9.39;82.07
64211;BME280;50528;48.514;14.394;2023-05-20T01:59:18;94086.79;;;9.40;81.99
64211;BME280;50528;48.514;14.394;2023-05-20T01:59:52;94088.56;;;9.40;81.95
64211;BME280;50528;48.514;14.394;2023-05-20T02:00:26;94090.43;;;9.39;81.99
64211;BME280;50528;48.514;14.394;2023-05-20T02:01:00;94086.85;;;9.39;81.89
64211;BME280;50528;48.514;14.394;2023-05-20T02:01:35;94090.61;;;9.38;81.78
64211;BME280;50528;48.514;14.394;2023-05-20T02:02:09;94096.84;;;9.36;81.76
64211;BME280;50528;48.514;14.394;2023-05-20T02:02:42;94092.16;;;9.36;81.83
64211;BME280;50528;48.514;14.394;2023-05-20T02:03:17;94098.33;;;9.35;81.95
64211;BME280;50528;48.514;14.394;2023-05-20T02:03:50;94097.91;;;9.35;81.98
64211;BME280;50528;48.514;14.394;2023-05-20T02:04:26;94102.77;;;9.35;81.92
64211;BME280;50528;48.514;14.394;2023-05-20T02:05:00;94104.19;;;9.34;82.00
64211;BME280;50528;48.514;14.394;2023-05-20T02:05:33;94101.70;;;9.33;82.02
64211;BME280;50528;48.514;14.394;2023-05-20T02:06:09;94103.98;;;9.34;82.05
64211;BME280;50528;48.514;14.394;2023-05-20T02:06:43;94102.52;;;9.35;82.14
64211;BME280;50528;48.514;14.394;2023-05-20T02:07:17;94093.57;;;9.30;82.22
64211;BME280;50528;48.514;14.394;2023-05-20T02:07:51;94095.75;;;9.34;82.22
64211;BME280;50528;48.514;14.394;2023-05-20T02:08:25;94099.33;;;9.35;82.26
64211;BME280;50528;48.514;14.394;2023-05-20T02:08:59;94095.75;;;9.34;82.25
64211;BME280;50528;48.514;14.394;2023-05-20T02:09:32;94099.42;;;9.34;82.25
64211;BME280;50528;48.514;14.394;2023-05-20T02:10:06;94103.30;;;9.34;82.38
64211;BME280;50528;48.514;14.394;2023-05-20T02:10:39;94105.19;;;9.34;82.31
64211;BME280;50528;48.514;14.394;2023-05-20T02:11:12;94107.31;;;9.33;82.36
64211;BME280;50528;48.514;14.394;2023-05-20T02:11:49;94104.82;;;9.32;82.36
64211;BME280;50528;48.514;14.394;2023-05-20T02:12:22;94101.85;;;9.33;82.49
64211;BME280;50528;48.514;14.394;2023-05-20T02:12:55;94098.02;;;9.32;82.44
64211;BME280;50528;48.514;14.394;2023-05-20T02:13:29;94101.77;;;9.34;82.47
64211;BME280;50528;48.514;14.394;2023-05-20T02:14:02;94097.68;;;9.34;82.40
64211;BME280;50528;48.514;14.394;2023-05-20T02:14:35;94096.73;;;9.34;82.54
64211;BME280;50528;48.514;14.394;2023-05-20T02:15:09;94099.64;;;9.35;82.56
64211;BME280;50528;48.514;14.394;2023-05-20T02:15:42;94098.40;;;9.35;82.51
64211;BME280;50528;48.514;14.394;2023-05-20T02:16:17;94103.44;;;9.35;82.59
64211;BME280;50528;48.514;14.394;2023-05-20T02:16:50;94096.23;;;9.34;82.60
64211;BME280;50528;48.514;14.394;2023-05-20T02:17:24;94099.60;;;9.36;82.70
64211;BME280;50528;48.514;14.394;2023-05-20T02:17:58;94097.16;;;9.36;82.68
64211;BME280;50528;48.514;14.394;2023-05-20T02:18:31;94102.15;;;9.38;82.76
64211;BME280;50528;48.514;14.394;2023-05-20T02:19:07;94099.88;;;9.39;82.90
64211;BME280;50528;48.514;14.394;2023-05-20T02:19:45;94098.16;;;9.38;82.98
64211;BME280;50528;48.514;14.394;2023-05-20T02:20:19;94093.42;;;9.37;82.99
64211;BME280;50528;48.514;14.394;2023-05-20T02:20:52;94094.20;;;9.39;83.15
64211;BME280;50528;48.514;14.394;2023-05-20T02:21:25;94092.79;;;9.36;83.11
64211;BME280;50528;48.514;14.394;2023-05-20T02:21:59;94094.82;;;9.38;83.13
64211;BME280;50528;48.514;14.394;2023-05-20T02:22:32;94097.38;;;9.40;83.20
64211;BME280;50528;48.514;14.394;2023-05-20T02:23:05;94098.29;;;9.41;83.27
64211;BME280;50528;48.514;14.394;2023-05-20T02:23:41;94101.34;;;9.41;83.14
64211;BME280;50528;48.514;14.394;2023-05-20T02:24:15;94100.40;;;9.41;83.28
64211;BME280;50528;48.514;14.394;2023-05-20T02:24:49;94102.30;;;9.43;83.25
64211;BME280;50528;48.514;14.394;2023-05-20T02:25:22;94104.67;;;9.43;83.29
64211;BME280;50528;48.514;14.394;2023-05-20T02:25:56;94101.27;;;9.44;83.27
64211;BME280;50528;48.514;14.394;2023-05-20T02:26:29;94098.23;;;9.44;83.34
64211;BME280;50528;48.514;14.394;2023-05-20T02:27:03;94102.62;;;9.45;83.27
64211;BME280;50528;48.514;14.394;2023-05-20T02:27:38;94102.58;;;9.46;83.39
64211;BME280;50528;48.514;14.394;2023-05-20T02:28:12;94102.33;;;9.47;83.31
64211;BME280;50528;48.514;14.394;2023-05-20T02:28:47;94103.52;;;9.48;83.39
64211;BME280;50528;48.514;14.394;2023-05-20T02:29:23;94103.70;;;9.48;83.40
64211;BME280;50528;48.514;14.394;2023-05-20T02:29:57;94105.82;;;9.49;83.43
64211;BME280;50528;48.514;14.394;2023-05-20T02:30:30;94106.76;;;9.51;83.43
64211;BME280;50528;48.514;14.394;2023-05-20T02:31:03;94103.77;;;9.51;83.34
64211;BME280;50528;48.514;14.394;2023-05-20T02:31:37;94103.15;;;9.51;83.34
64211;BME280;50528;48.514;14.394;2023-05-20T02:32:10;94103.30;;;9.53;83.35
64211;BME280;50528;48.514;14.394;2023-05-20T02:32:44;94104.36;;;9.55;83.40
64211;BME280;50528;48.514;14.394;2023-05-20T02:33:18;94103.73;;;9.60;83.54
64211;BME280;50528;48.514;14.394;2023-05-20T02:33:51;94103.94;;;9.62;83.63
64211;BME280;50528;48.514;14.394;2023-05-20T02:34:26;94102.60;;;9.62;83.72
64211;BME280;50528;48.514;14.394;2023-05-20T02:35:00;94101.46;;;9.62;83.91
64211;BME280;50528;48.514;14.394;2023-05-20T02:35:33;94099.30;;;9.69;84.11
64211;BME280;50528;48.514;14.394;2023-05-20T02:36:07;94100.19;;;9.71;84.11
64211;BME280;50528;48.514;14.394;2023-05-20T02:36:44;94102.45;;;9.78;84.44
64211;BME280;50528;48.514;14.394;2023-05-20T02:37:17;94099.67;;;9.91;84.60
64211;BME280;50528;48.514;14.394;2023-05-20T02:37:51;94097.86;;;9.98;84.68
64211;BME280;50528;48.514;14.394;2023-05-20T02:38:24;94097.02;;;10.07;84.82
64211;BME280;50528;48.514;14.394;2023-05-20T02:38:58;94095.08;;;10.18;85.01
64211;BME280;50528;48.514;14.394;2023-05-20T02:39:33;94091.77;;;10.30;85.02
64211;BME280;50528;48.514;14.394;2023-05-20T02:40:07;94095.17;;;10.47;85.08
64211;BME280;50528;48.514;14.394;2023-05-20T02:40:45;94090.36;;;10.58;84.82
64211;BME280;50528;48.514;14.394;2023-05-20T02:41:18;94094.27;;;10.70;84.74
64211;BME280;50528;48.514;14.394;2023-05-20T02:41:52;94086.88;;;10.78;84.67
64211;BME280;50528;48.514;14.394;2023-05-20T02:42:25;94087.17;;;10.88;84.63
64211;BME280;50528;48.514;14.394;2023-05-20T02:42:59;94086.70;;;10.92;84.59
64211;BME280;50528;48.514;14.394;2023-05-20T02:43:36;94081.44;;;11.00;84.47
64211;BME280;50528;48.514;14.394;2023-05-20T02:44:09;94085.47;;;11.06;84.25
64211;BME280;50528;48.514;14.394;2023-05-20T02:44:42;94086.86;;;11.12;83.88
64211;BME280;50528;48.514;14.394;2023-05-20T02:45:17;94087.54;;;11.16;83.78
64211;BME280;50528;48.514;14.394;2023-05-20T02:45:50;94088.27;;;11.21;83.79
64211;BME280;50528;48.514;14.394;2023-05-20T02:46:24;94090.08;;;11.25;83.68
64211;BME280;50528;48.514;14.394;2023-05-20T02:46:57;94091.25;;;11.30;83.52
64211;BME280;50528;48.514;14.394;2023-05-20T02:47:31;94091.30;;;11.35;83.34
64211;BME280;50528;48.514;14.394;2023-05-20T02:48:04;94092.13;;;11.38;83.16
64211;BME280;50528;48.514;14.394;2023-05-20T02:48:38;94090.77;;;11.39;83.09
64211;BME280;50528;48.514;14.394;2023-05-20T02:49:11;94089.29;;;11.38;83.10
64211;BME280;50528;48.514;14.394;2023-05-20T02:49:45;94089.81;;;11.44;82.87
64211;BME280;50528;48.514;14.394;2023-05-20T02:50:19;94092.92;;;11.44;82.97
64211;BME280;50528;48.514;14.394;2023-05-20T02:50:52;94093.30;;;11.47;82.77
64211;BME280;50528;48.514;14.394;2023-05-20T02:51:26;94088.36;;;11.53;82.55
64211;BME280;50528;48.514;14.394;2023-05-20T02:51:59;94091.52;;;11.49;82.48
64211;BME280;50528;48.514;14.394;2023-05-20T02:52:32;94094.67;;;11.44;82.73
64211;BME280;50528;48.514;14.394;2023-05-20T02:53:07;94095.17;;;11.46;82.70
64211;BME280;50528;48.514;14.394;2023-05-20T02:53:40;94091.95;;;11.49;82.58
64211;BME280;50528;48.514;14.394;2023-05-20T02:54:14;94094.16;;;11.48;82.52
64211;BME280;50528;48.514;14.394;2023-05-20T02:54:47;94096.11;;;11.50;82.36
64211;BME280;50528;48.514;14.394;2023-05-20T02:55:20;94095.86;;;11.51;82.29
64211;BME280;50528;48.514;14.394;2023-05-20T02:55:56;94098.52;;;11.48;82.33
64211;BME280;50528;48.514;14.394;2023-05-20T02:56:29;94095.23;;;11.46;82.39
64211;BME280;50528;48.514;14.394;2023-05-20T02:57:06;94101.46;;;11.49;82.41
64211;BME280;50528;48.514;14.394;2023-05-20T02:57:39;94101.19;;;11.52;82.20
64211;BME280;50528;48.514;14.394;2023-05-20T02:58:14;94104.72;;;11.52;82.09
64211;BME280;50528;48.514;14.394;2023-05-20T02:58:48;94102.92;;;11.47;82.19
64211;BME280;50528;48.514;14.394;2023-05-20T02:59:21;94101.23;;;11.46;82.21
64211;BME280;50528;48.514;14.394;2023-05-20T02:59:55;94100.66;;;11.47;82.16
64211;BME280;50528;48.514;14.394;2023-05-20T03:00:28;94105.25;;;11.47;82.19
64211;BME280;50528;48.514;14.394;2023-05-20T03:01:07;94106.84;;;11.45;82.07
64211;BME280;50528;48.514;14.394;2023-05-20T03:01:41;94108.75;;;11.46;82.05
64211;BME280;50528;48.514;14.394;2023-05-20T03:02:15;94107.64;;;11.45;82.09
64211;BME280;50528;48.514;14.394;2023-05-20T03:02:48;94104.33;;;11.46;82.00
64211;BME280;50528;48.514;14.394;2023-05-20T03:03:23;94105.66;;;11.47;81.89
64211;BME280;50528;48.514;14.394;2023-05-20T03:03:57;94108.19;;;11.47;81.97